Salt Lake City, Utah
Traffic Map
Current Weather Conditions
Salt Lake City, Utah
Broken Clouds
Broken Clouds
26°
Feels Like: 26°
Wind Chill: 26° Ceiling: 25000
Heat Index: 26° Visibility: 10mi
Dew Point: Wind: 22mph
Humidity: 19% Direction: 160° (SSE)
Pressure: 29.96in Gusts: 30mph
Raw Report DataKSLC 252053Z 16019G26KT 10SM BKN250 26/00 A2996 RMK AO2 PK WND 16029/2031 SLP095 T02560000 58026
Traffic Incident Summary
Active as of:
Severity:
Category:
InformationThere was an issue retrieving the traffic information for this location. Please try a different location or try again shortly.
Advertisements
Track Severe Weather on mobile